NATIONAL KEY DEER NWR FL US current weather conditions

sailwx.info

Wind from 110 at 5 knots gusting 12

Air temperature 33.3° C
Dewpoint 24.5° C

Last reported at 2014-Aug-27 20:38 UTC.
Time now 2014-Aug-27 21:19 UTC

Location: N 24°43' W 081°23'.
View on Google Maps.

See reports from other nearby stations

  
Tides and Currents Weather Stations Pressure Air Temp Water Temp Dewpoint Dewpoint Depression Visibility Wind Speed Wind Dir Waves Ship Positions
date/time (UTC)wind fromknots sea level pressurealtimeterstation pressurevisibilityair tempwater tempwave heightnotes
2014-Aug-27 20:38 110 5 gusting 12 33.3
2014-Aug-27 19:38 108 5 gusting 13 33.9
2014-Aug-27 18:38 107 6 gusting 12 32.8
2014-Aug-27 17:38 089 6 gusting 15 32.2
2014-Aug-27 16:38 076 7 gusting 13 32.2
2014-Aug-27 15:38 067 7 gusting 14 32.2
2014-Aug-27 14:38 061 6 gusting 13 31.7
2014-Aug-27 13:38 058 6 gusting 13 30.6
2014-Aug-27 12:38 060 6 gusting 13 29.4
2014-Aug-27 11:38 065 6 gusting 13 28.3
2014-Aug-27 10:38 059 6 gusting 12 28.3
2014-Aug-27 09:38 060 6 gusting 13 28.3
2014-Aug-27 08:38 056 6 gusting 13 28.3
2014-Aug-27 07:38 049 6 gusting 15 28.3
2014-Aug-27 06:38 060 7 gusting 14 28.9
2014-Aug-27 05:38 068 6 gusting 13 28.9
2014-Aug-27 04:38 061 7 gusting 14 29.4
2014-Aug-27 03:38 066 8 gusting 14 29.4
2014-Aug-27 02:38 077 8 gusting 16 29.4
2014-Aug-27 01:38 079 8 gusting 16 30.0
2014-Aug-27 00:38 088 7 gusting 15 30.0
2014-Aug-26 23:38 084 7 gusting 14 30.0
2014-Aug-26 22:38 099 5 gusting 15 29.4
2014-Aug-26 21:38 060 8 gusting 13 28.9
2014-Aug-26 20:38 113 5 gusting 13 32.2
2014-Aug-26 19:38 092 6 gusting 15 32.8
2014-Aug-26 18:38 088 8 gusting 15 33.3
2014-Aug-26 17:38 077 8 gusting 16 32.8
2014-Aug-26 16:38 071 7 gusting 13 32.2
2014-Aug-26 15:38 115 4 gusting 12 31.1
2014-Aug-26 14:38 085 6 gusting 14 29.4
2014-Aug-26 13:38 056 6 gusting 13 29.4
2014-Aug-26 12:38 049 6 gusting 13 28.3
2014-Aug-26 11:38 051 7 gusting 15 27.2
2014-Aug-26 10:38 060 7 gusting 14 27.8
2014-Aug-26 09:38 055 6 gusting 13 27.8
2014-Aug-26 08:38 056 7 gusting 18 27.8
2014-Aug-26 07:38 060 7 gusting 16 27.8
2014-Aug-26 06:38 053 9 gusting 17 28.3
2014-Aug-26 05:38 052 7 gusting 15 27.2
2014-Aug-26 04:38 070 9 gusting 17 28.3
2014-Aug-26 03:38 056 6 gusting 13 28.3
2014-Aug-26 02:38 075 3 gusting 11 27.2
2014-Aug-26 01:38 060 8 gusting 17 27.2
2014-Aug-26 00:38 032 4 gusting 13 28.9
2014-Aug-25 23:38 008 8 gusting 17 28.9
2014-Aug-25 22:38 024 4 gusting 11 30.6
2014-Aug-25 21:38 015 6 gusting 13 31.7